Flight Track Log - Related Links

Times and Time Zones

All times are in EDT time to prevent confusion due to time zone crossing. See the CNK8273 flight status page for this flight to view local times or setup timezone preferences in your user account.

Time Position Orientation Groundspeed Altitude Reporting Facility
EDT Latitude Longitude Course Direction KTS MPH feet Rate Location/Type
Tue 02:02:31 PM 54.6500 -112.1167 191° South 160 184 8,400  Level Edmonton Center
Tue 02:03:31 PM 54.6000 -112.1333 191° South 160 184 10,200 1,700 Climbing Edmonton Center
Tue 02:04:31 PM 54.5667 -112.1500 196° South 170 196 11,800 1,600 Climbing Edmonton Center
Tue 02:05:31 PM 54.5167 -112.1833 201° Southwest 180 207 13,400 1,450 Climbing Edmonton Center
Tue 02:06:31 PM 54.4667 -112.2000 191° South 180 207 14,700 1,300 Climbing Edmonton Center
Tue 02:07:31 PM 54.4167 -112.2500 210° Southwest 190 219 16,000 1,250 Climbing Edmonton Center
Tue 02:08:31 PM 54.3500 -112.2667 188° South 190 219 17,200 1,050 Climbing Edmonton Center
Tue 02:09:31 PM 54.3000 -112.2833 191° South 190 219 18,100 900 Climbing Edmonton Center
Tue 02:10:31 PM 54.2500 -112.3333 210° Southwest 200 230 19,000 900 Climbing Edmonton Center
Tue 02:11:31 PM 54.2000 -112.3500 191° South 200 230 19,900 850 Climbing Edmonton Center
Tue 02:12:31 PM 54.1500 -112.3667 191° South 200 230 20,700 750 Climbing Edmonton Center
Tue 02:13:31 PM 54.1000 -112.4167 210° Southwest 200 230 21,400 800 Climbing Edmonton Center
Tue 02:14:31 PM 54.0333 -112.4333 188° South 200 230 22,300 750 Climbing Edmonton Center
Tue 02:15:31 PM 53.9833 -112.4833 210° Southwest 200 230 22,900 550 Climbing Edmonton Center
Tue 02:16:31 PM 53.9333 -112.5000 191° South 200 230 23,400 500 Climbing Edmonton Center
Tue 02:17:31 PM 53.8833 -112.5333 201° Southwest 200 230 23,900 550 Climbing Edmonton Center
Tue 02:18:31 PM 53.8333 -112.5667 201° Southwest 200 230 24,500 500 Climbing Edmonton Center
Tue 02:19:31 PM 53.7833 -112.5833 191° South 200 230 24,900 400 Climbing Edmonton Center
Tue 02:20:31 PM 53.7167 -112.6167 196° South 200 230 25,300 350 Climbing Edmonton Center
Tue 02:21:31 PM 53.6667 -112.6500 202° Southwest 200 230 25,600 300 Climbing Edmonton Center
Tue 02:22:31 PM 53.6167 -112.6833 202° Southwest 210 242 25,900 200 Climbing Edmonton Center
Tue 02:23:31 PM 53.5500 -112.7167 197° South 210 242 26,000 50 Climbing Edmonton Center
Tue 02:24:31 PM 53.5000 -112.7333 191° South 220 253 26,000  Level Edmonton Center
Tue 02:25:31 PM 53.4333 -112.7833 204° Southwest 220 253 26,000  Level Edmonton Center
Tue 02:26:31 PM 53.3667 -112.8000 188° South 230 265 26,000  Level Edmonton Center
Tue 02:27:31 PM 53.3167 -112.8500 211° Southwest 230 265 26,000  Level Edmonton Center
Tue 02:28:31 PM 53.2500 -112.8667 189° South 220 253 26,000  Level Edmonton Center
Tue 02:29:31 PM 53.2000 -112.9167 211° Southwest 220 253 26,000  Level Edmonton Center
Tue 02:30:31 PM 53.1333 -112.9333 189° South 220 253 26,000  Level Edmonton Center
Tue 02:31:31 PM 53.0667 -112.9667 197° South 220 253 26,000  Level Edmonton Center
Tue 02:32:31 PM 53.0167 -112.9833 191° South 220 253 26,000  Level Edmonton Center
Tue 02:33:31 PM 52.9500 -113.0333 204° Southwest 220 253 26,000  Level Edmonton Center
Tue 02:34:31 PM 52.9000 -113.0500 191° South 220 253 26,000  Level Edmonton Center
Tue 02:35:31 PM 52.8333 -113.1000 204° Southwest 220 253 26,000  Level Edmonton Center
Tue 02:36:31 PM 52.7667 -113.1333 197° South 220 253 26,000  Level Edmonton Center
Tue 02:37:31 PM 52.7167 -113.1500 191° South 220 253 26,000 -300 Level Edmonton Center
Tue 02:38:31 PM 52.6667 -113.2000 211° Southwest 230 265 25,400 -650 Descending Edmonton Center
Tue 02:39:31 PM 52.6000 -113.2167 189° South 240 276 24,700 -750 Descending Edmonton Center
Tue 02:40:31 PM 52.5167 -113.2500 194° South 250 288 23,900 -850 Descending Edmonton Center
Tue 02:41:31 PM 52.4500 -113.3000 205° Southwest 260 299 23,000 -800 Descending Edmonton Center
Tue 02:42:31 PM 52.3833 -113.3333 197° South 260 299 22,300 -900 Descending Edmonton Center
Tue 02:43:31 PM 52.3167 -113.3500 189° South 260 299 21,200 -1,000 Descending Edmonton Center
Tue 02:44:31 PM 52.2333 -113.4000 200° South 260 299 20,300 -1,050 Descending Edmonton Center
Tue 02:45:31 PM 52.1667 -113.4333 197° South 260 299 19,100 -1,050 Descending Edmonton Center
Tue 02:46:31 PM 52.1000 -113.4833 205° Southwest 270 311 18,200 -1,000 Descending Edmonton Center
Tue 02:47:31 PM 52.0333 -113.4833 180° South 260 299 17,100 -1,200 Descending Edmonton Center
Tue 02:48:31 PM 51.9500 -113.5333 200° South 260 299 15,800 -1,250 Descending Edmonton Center
Tue 02:49:31 PM 51.8833 -113.5667 197° South 270 311 14,600 -1,100 Descending Edmonton Center
Tue 02:50:31 PM 51.8167 -113.6167 205° Southwest 260 299 13,600 -1,100 Descending Edmonton Center
Tue 02:51:31 PM 51.7500 -113.6333 189° South 250 288 12,400 -1,150 Descending Edmonton Center
Tue 02:52:31 PM 51.7000 -113.6667 202° Southwest 250 288 11,300 -950 Descending Edmonton Center
Tue 02:53:31 PM 51.6167 -113.6833 187° South 240 276 10,500 -600 Descending Edmonton Center
Tue 02:54:31 PM 51.5667 -113.7500 220° Southwest 230 265 10,100 -450 Descending Edmonton Center
Tue 02:55:31 PM 51.5167 -113.8000 212° Southwest 230 265 9,600 -650 Descending Edmonton Center
Tue 02:56:31 PM 51.4500 -113.8667 212° Southwest 230 265 8,800 -800 Descending Edmonton Center
Tue 02:57:31 PM 51.4000 -113.9167 212° Southwest 230 265 8,000 -900 Descending Edmonton Center
Tue 02:58:31 PM 51.3500 -113.9833 220° Southwest 230 265 7,000 -750 Descending Edmonton Center
Tue 02:59:31 PM 51.2833 -114.0167 197° South 210 242 6,500 -250 Descending Edmonton Center
Tue 03:00:31 PM 51.2333 -114.0333 192° South 190 219 6,500 -350 Level Edmonton Center
Tue 03:01:31 PM 51.2000 -114.0333 180° South 150 173 5,800 -700 Descending Edmonton Center
Tue 03:02:31 PM 51.1500 -114.0500 192° South 150 173 5,100 -750 Descending Edmonton Center
Tue 03:03:31 PM 51.1167 -114.0333 163° South 110 127 4,300 -700 Descending Edmonton Center
Tue 03:04:31 PM 51.0833 -114.0333 180° South 110 127 3,700 -600 Descending Edmonton Center

Login

Don't have an account? Register now (free) for customized features, flight alerts, and more!